createdAt,value
2024-03-02T00:00:12.467Z,16.4
2024-03-02T00:01:15.321Z,16.4
2024-03-02T00:02:18.200Z,16.4
2024-03-02T00:03:20.728Z,16.5
2024-03-02T00:04:23.505Z,16.6
2024-03-02T00:05:25.844Z,16.7
2024-03-02T00:06:28.409Z,16.8
2024-03-02T00:07:31.032Z,16.8
2024-03-02T00:08:33.520Z,16.7
2024-03-02T00:09:35.998Z,16.6
2024-03-02T00:10:38.501Z,16.6
2024-03-02T00:11:40.752Z,16.4
2024-03-02T00:12:43.289Z,16.3
2024-03-02T00:13:45.838Z,16.2
2024-03-02T00:14:48.269Z,16.1
2024-03-02T00:15:50.836Z,16.1
2024-03-02T00:16:53.702Z,16
2024-03-02T00:17:56.220Z,16
2024-03-02T00:18:58.940Z,16
2024-03-02T00:20:01.855Z,16.1
2024-03-02T00:21:04.312Z,16.1
2024-03-02T00:22:06.665Z,16.2
2024-03-02T00:23:09.093Z,16.2
2024-03-02T00:24:11.673Z,16.2
2024-03-02T00:25:14.272Z,16.2
2024-03-02T00:26:16.715Z,16.3
2024-03-02T00:27:19.363Z,16.3
2024-03-02T00:28:21.893Z,16.3
2024-03-02T00:29:24.350Z,16.3
2024-03-02T00:30:26.676Z,16.2
2024-03-02T00:31:29.249Z,16.1
2024-03-02T00:32:31.748Z,16.1
2024-03-02T00:33:34.444Z,16.1
2024-03-02T00:34:37.151Z,16.1
2024-03-02T00:35:39.572Z,16
2024-03-02T00:36:42.067Z,16
2024-03-02T00:37:44.684Z,16.1
2024-03-02T00:38:47.168Z,16.1
2024-03-02T00:39:50.011Z,16.1
2024-03-02T00:40:52.631Z,16.2
2024-03-02T00:41:55.086Z,16.2
2024-03-02T00:42:57.613Z,16.2
2024-03-02T00:44:00.228Z,16.2
2024-03-02T00:45:02.557Z,16.3
2024-03-02T00:46:05.024Z,16.3
2024-03-02T00:47:07.373Z,16.4
2024-03-02T00:48:09.828Z,16.4
2024-03-02T00:49:12.150Z,16.4
2024-03-02T00:51:19.888Z,4.7
2024-03-02T00:52:22.220Z,6.9
2024-03-02T00:53:24.688Z,8.7
2024-03-02T00:54:27.385Z,10.2
2024-03-02T00:55:30.170Z,11.3
2024-03-02T00:56:32.605Z,12.2
2024-03-02T00:57:35.189Z,12.9
2024-03-02T00:58:37.584Z,13.5
2024-03-02T00:59:40.013Z,14
2024-03-02T01:00:42.741Z,14.4
2024-03-02T01:01:45.778Z,14.7
2024-03-02T01:02:48.412Z,15
2024-03-02T01:03:51.546Z,15.2
2024-03-02T01:04:54.209Z,15.4
2024-03-02T01:05:56.623Z,15.5
2024-03-02T01:06:59.204Z,15.6
2024-03-02T01:08:02.258Z,15.7
2024-03-02T01:09:04.734Z,15.8
2024-03-02T01:10:07.179Z,16
2024-03-02T01:11:09.645Z,16.1
2024-03-02T01:12:12.465Z,16.3
2024-03-02T01:13:15.197Z,16.4
2024-03-02T01:14:17.415Z,16.4
2024-03-02T01:15:19.878Z,16.5
2024-03-02T01:16:22.467Z,16.5
2024-03-02T01:17:24.978Z,16.5
2024-03-02T01:18:27.519Z,16.4
2024-03-02T01:19:30.235Z,16.4
2024-03-02T01:20:32.804Z,16.4
2024-03-02T01:21:35.245Z,16.3
2024-03-02T01:22:37.921Z,16.3
2024-03-02T01:23:40.387Z,16.3
2024-03-02T01:24:42.903Z,16.3
2024-03-02T01:25:45.592Z,16.3
2024-03-02T01:26:48.038Z,16.3
2024-03-02T01:27:51.325Z,16.3
2024-03-02T01:28:53.761Z,16.4
2024-03-02T01:29:56.214Z,16.4
2024-03-02T01:30:58.858Z,16.5
2024-03-02T01:32:01.588Z,16.5
2024-03-02T01:33:04.225Z,16.5
2024-03-02T01:34:07.182Z,16.5
2024-03-02T01:35:10.163Z,16.6
2024-03-02T01:36:12.606Z,16.6
2024-03-02T01:37:15.145Z,16.7
2024-03-02T01:38:17.630Z,16.8
2024-03-02T01:39:20.158Z,16.8
2024-03-02T01:40:22.713Z,16.8
2024-03-02T01:41:25.138Z,16.8
2024-03-02T01:42:27.648Z,16.7
2024-03-02T01:43:30.216Z,16.6
2024-03-02T01:44:32.801Z,16.6
2024-03-02T01:45:35.522Z,16.6
2024-03-02T01:46:38.297Z,16.5
2024-03-02T01:47:40.791Z,16.5
2024-03-02T01:48:43.272Z,16.5
2024-03-02T01:49:45.872Z,16.4
2024-03-02T01:50:48.341Z,16.4
2024-03-02T01:51:50.957Z,16.4
2024-03-02T01:52:53.735Z,16.4
2024-03-02T01:53:56.198Z,16.4
2024-03-02T01:54:58.831Z,16.5
2024-03-02T01:56:01.488Z,16.5
2024-03-02T01:57:04.003Z,16.5
2024-03-02T01:58:06.530Z,16.5
2024-03-02T01:59:09.167Z,16.6
2024-03-02T02:00:11.626Z,16.6
2024-03-02T02:01:14.552Z,16.7
2024-03-02T02:02:17.532Z,16.8
2024-03-02T02:03:20.063Z,16.8
2024-03-02T02:04:22.609Z,16.9
2024-03-02T02:05:25.041Z,16.9
2024-03-02T02:06:27.574Z,16.9
2024-03-02T02:07:30.119Z,16.9
2024-03-02T02:08:32.309Z,16.8
2024-03-02T02:09:34.892Z,16.7
2024-03-02T02:10:37.544Z,16.6
2024-03-02T02:11:40.040Z,16.5
2024-03-02T02:12:42.673Z,16.5
2024-03-02T02:13:45.303Z,16.4
2024-03-02T02:14:47.753Z,16.5
2024-03-02T02:15:50.020Z,16.5
2024-03-02T02:16:52.752Z,16.5
2024-03-02T02:17:55.334Z,16.6
2024-03-02T02:18:58.447Z,16.6
2024-03-02T02:20:01.197Z,16.6
2024-03-02T02:21:03.503Z,16.6
2024-03-02T02:22:05.996Z,16.6
2024-03-02T02:23:08.181Z,16.6
2024-03-02T02:24:10.642Z,16.6
2024-03-02T02:25:13.030Z,16.7
2024-03-02T02:26:15.502Z,16.7
2024-03-02T02:27:18.014Z,16.8
2024-03-02T02:28:20.736Z,16.8
2024-03-02T02:29:23.165Z,16.8
2024-03-02T02:30:25.739Z,16.8
2024-03-02T02:31:28.382Z,16.7
2024-03-02T02:32:30.683Z,16.7
2024-03-02T02:33:33.386Z,16.6
2024-03-02T02:34:36.093Z,16.6
2024-03-02T02:35:38.262Z,16.5
2024-03-02T02:36:40.915Z,16.4
2024-03-02T02:37:43.737Z,16.4
2024-03-02T02:38:46.185Z,16.4
2024-03-02T02:39:48.573Z,16.4
2024-03-02T02:40:51.410Z,16.4
2024-03-02T02:41:53.904Z,16.5
2024-03-02T02:42:56.483Z,16.5
2024-03-02T02:43:59.178Z,16.5
2024-03-02T02:45:01.739Z,16.5
2024-03-02T02:46:04.465Z,16.6
2024-03-02T02:47:07.120Z,16.6
2024-03-02T02:48:09.735Z,16.6
2024-03-02T02:49:12.502Z,16.7
2024-03-02T02:50:14.584Z,16.7
2024-03-02T02:51:17.060Z,16.8
2024-03-02T02:52:19.683Z,16.8
2024-03-02T02:53:22.210Z,16.8
2024-03-02T02:54:24.559Z,16.8
2024-03-02T02:55:27.227Z,16.8
2024-03-02T02:56:29.700Z,16.8
2024-03-02T02:57:32.252Z,16.7
2024-03-02T02:58:34.939Z,16.6
2024-03-02T02:59:37.356Z,16.5
2024-03-02T03:00:39.953Z,16.5
2024-03-02T03:01:43.036Z,16.5
2024-03-02T03:02:45.802Z,16.6
2024-03-02T03:03:48.378Z,16.6
2024-03-02T03:04:51.074Z,16.6
2024-03-02T03:05:53.655Z,16.6
2024-03-02T03:06:56.099Z,16.6
2024-03-02T03:07:58.780Z,16.7
2024-03-02T03:09:01.387Z,16.7
2024-03-02T03:10:03.659Z,16.7
2024-03-02T03:11:06.171Z,16.7
2024-03-02T03:12:08.852Z,16.7
2024-03-02T03:13:11.113Z,16.7
2024-03-02T03:14:13.621Z,16.7
2024-03-02T03:15:16.192Z,16.8
2024-03-02T03:16:19.331Z,16.9
2024-03-02T03:17:21.807Z,16.9
2024-03-02T03:18:24.321Z,16.9
2024-03-02T03:19:26.903Z,16.8
2024-03-02T03:20:29.358Z,16.8
2024-03-02T03:21:31.880Z,16.7
2024-03-02T03:22:34.475Z,16.7
2024-03-02T03:23:36.972Z,16.6
2024-03-02T03:24:39.509Z,16.6
2024-03-02T03:25:42.188Z,16.5
2024-03-02T03:26:44.712Z,16.5
2024-03-02T03:27:47.258Z,16.5
2024-03-02T03:28:49.946Z,16.5
2024-03-02T03:29:52.345Z,16.6
2024-03-02T03:30:54.665Z,16.6
2024-03-02T03:31:57.485Z,16.6
2024-03-02T03:32:59.930Z,16.7
2024-03-02T03:34:02.353Z,16.7
2024-03-02T03:35:05.305Z,16.8
2024-03-02T03:36:08.116Z,16.8
2024-03-02T03:37:10.553Z,16.8
2024-03-02T03:38:13.049Z,16.8
2024-03-02T03:39:15.612Z,16.8
2024-03-02T03:40:18.206Z,16.8
2024-03-02T03:41:20.685Z,16.9
2024-03-02T03:42:23.216Z,16.8
2024-03-02T03:43:25.865Z,16.8
2024-03-02T03:44:28.085Z,16.8
2024-03-02T03:45:30.599Z,16.8
2024-03-02T03:46:33.243Z,16.7
2024-03-02T03:47:35.866Z,16.7
2024-03-02T03:48:38.657Z,16.6
2024-03-02T03:49:41.234Z,16.6
2024-03-02T03:50:43.692Z,16.5
2024-03-02T03:51:46.234Z,16.5
2024-03-02T03:52:48.946Z,16.5
2024-03-02T03:53:51.371Z,16.5
2024-03-02T03:54:53.856Z,16.6
2024-03-02T03:55:56.721Z,16.7
2024-03-02T03:56:59.166Z,16.7
2024-03-02T03:58:01.904Z,16.8
2024-03-02T03:59:04.599Z,16.8
2024-03-02T04:00:06.890Z,16.9
2024-03-02T04:01:09.699Z,16.9
2024-03-02T04:02:12.679Z,16.9
2024-03-02T04:03:15.209Z,16.9
2024-03-02T04:04:18.243Z,16.9
2024-03-02T04:05:20.694Z,17
2024-03-02T04:06:23.221Z,17
2024-03-02T04:07:25.925Z,17
2024-03-02T04:08:28.484Z,17
2024-03-02T04:09:30.964Z,17
2024-03-02T04:10:33.602Z,17
2024-03-02T04:11:36.112Z,17
2024-03-02T04:12:38.673Z,17
2024-03-02T04:13:41.488Z,17
2024-03-02T04:14:44.450Z,17
2024-03-02T04:15:47.053Z,17
2024-03-02T04:16:49.703Z,17
2024-03-02T04:17:52.263Z,17
2024-03-02T04:18:55.087Z,17.1
2024-03-02T04:19:57.757Z,17
2024-03-02T04:21:00.330Z,17
2024-03-02T04:23:08.061Z,4.8
2024-03-02T04:24:10.568Z,7.1
2024-03-02T04:25:13.025Z,9
2024-03-02T04:26:15.530Z,10.5
2024-03-02T04:27:18.108Z,11.8
2024-03-02T04:28:20.625Z,12.7
2024-03-02T04:29:23.083Z,13.5
2024-03-02T04:30:25.535Z,14.1
2024-03-02T04:31:28.025Z,14.7
2024-03-02T04:32:30.698Z,15.1
2024-03-02T04:33:33.428Z,15.4
2024-03-02T04:34:36.400Z,15.7
2024-03-02T04:35:38.919Z,15.9
2024-03-02T04:36:41.478Z,16.1
2024-03-02T04:37:43.944Z,16.2
2024-03-02T04:38:46.407Z,16.3
2024-03-02T04:39:48.987Z,16.4
2024-03-02T04:40:51.642Z,16.5
2024-03-02T04:41:54.078Z,16.5
2024-03-02T04:42:56.644Z,16.6
2024-03-02T04:43:59.406Z,16.6
2024-03-02T04:45:01.832Z,16.6
2024-03-02T04:46:04.435Z,16.7
2024-03-02T04:47:07.099Z,16.7
2024-03-02T04:48:09.615Z,16.8
2024-03-02T04:49:12.202Z,16.8
2024-03-02T04:50:15.019Z,16.8
2024-03-02T04:51:17.559Z,16.8
2024-03-02T04:52:20.182Z,16.8
2024-03-02T04:53:22.714Z,16.8
2024-03-02T04:54:25.481Z,16.9
2024-03-02T04:55:27.896Z,16.9
2024-03-02T04:56:30.460Z,16.9
2024-03-02T04:57:33.023Z,16.9
2024-03-02T04:58:35.714Z,16.9
2024-03-02T04:59:38.200Z,16.9
2024-03-02T05:00:40.977Z,16.9
2024-03-02T05:01:44.021Z,16.9
2024-03-02T05:02:46.731Z,16.9
2024-03-02T05:03:49.299Z,16.9
2024-03-02T05:04:51.997Z,16.9
2024-03-02T05:05:54.401Z,16.9
2024-03-02T05:06:56.948Z,16.9
2024-03-02T05:07:59.809Z,16.9
2024-03-02T05:09:02.235Z,16.9
2024-03-02T05:10:04.823Z,16.9
2024-03-02T05:11:07.453Z,16.9
2024-03-02T05:12:09.998Z,16.9
2024-03-02T05:13:12.564Z,16.9
2024-03-02T05:14:15.069Z,17
2024-03-02T05:15:17.642Z,17
2024-03-02T05:16:20.279Z,17
2024-03-02T05:17:22.710Z,17
2024-03-02T05:18:25.361Z,17
2024-03-02T05:19:28.579Z,17
2024-03-02T05:20:31.050Z,16.9
2024-03-02T05:21:33.531Z,16.9
2024-03-02T05:22:36.306Z,16.9
2024-03-02T05:23:38.773Z,16.9
2024-03-02T05:24:41.337Z,16.9
2024-03-02T05:25:43.916Z,16.9
2024-03-02T05:26:46.402Z,16.9
2024-03-02T05:27:48.896Z,17
2024-03-02T05:28:51.590Z,16.9
2024-03-02T05:29:54.127Z,16.9
2024-03-02T05:30:56.705Z,16.8
2024-03-02T05:31:59.584Z,16.8
2024-03-02T05:33:02.167Z,16.8
2024-03-02T05:34:05.041Z,16.9
2024-03-02T05:35:07.818Z,16.9
2024-03-02T05:36:10.253Z,16.9
2024-03-02T05:37:13.272Z,17
2024-03-02T05:38:15.733Z,16.9
2024-03-02T05:39:18.306Z,16.9
2024-03-02T05:41:26.022Z,4.8
2024-03-02T05:42:28.698Z,7
2024-03-02T05:43:31.390Z,8.9
2024-03-02T05:44:33.910Z,10.4
2024-03-02T05:45:36.516Z,11.7
2024-03-02T05:46:41.268Z,12.7
2024-03-02T05:47:44.148Z,13.5
2024-03-02T05:48:46.844Z,14.1
2024-03-02T05:49:49.626Z,14.6
2024-03-02T05:50:52.116Z,15.1
2024-03-02T05:51:54.888Z,15.4
2024-03-02T05:52:57.791Z,15.6
2024-03-02T05:54:00.283Z,15.8
2024-03-02T05:55:03.306Z,16
2024-03-02T05:56:06.299Z,16.1
2024-03-02T05:57:08.784Z,16.2
2024-03-02T05:58:11.281Z,16.3
2024-03-02T05:59:13.810Z,16.4
2024-03-02T06:00:16.753Z,16.4
2024-03-02T06:01:20.609Z,16.5
2024-03-02T06:02:23.757Z,16.5
2024-03-02T06:03:26.081Z,16.5
2024-03-02T06:04:28.698Z,16.6
2024-03-02T06:05:31.205Z,16.6
2024-03-02T06:06:33.898Z,16.6
2024-03-02T06:07:36.587Z,16.7
2024-03-02T06:08:39.084Z,16.7
2024-03-02T06:09:41.323Z,16.7
2024-03-02T06:10:44.176Z,16.8
2024-03-02T06:11:46.742Z,16.8
2024-03-02T06:12:49.164Z,16.8
2024-03-02T06:13:51.925Z,16.8
2024-03-02T06:14:54.357Z,16.9
2024-03-02T06:15:56.729Z,16.9
2024-03-02T06:16:59.538Z,16.9
2024-03-02T06:18:02.171Z,16.8
2024-03-02T06:19:04.887Z,16.8
2024-03-02T06:20:07.277Z,16.8
2024-03-02T06:21:09.777Z,16.8
2024-03-02T06:22:12.156Z,16.8
2024-03-02T06:23:14.632Z,16.8
2024-03-02T06:24:17.229Z,16.9
2024-03-02T06:25:19.664Z,16.8
2024-03-02T06:27:27.310Z,4.8
2024-03-02T06:28:29.923Z,7.1
2024-03-02T06:29:32.380Z,8.9
2024-03-02T06:30:35.075Z,10.4
2024-03-02T06:31:37.856Z,11.6
2024-03-02T06:32:40.474Z,12.5
2024-03-02T06:33:43.145Z,13.4
2024-03-02T06:34:45.801Z,14
2024-03-02T06:35:48.269Z,14.5
2024-03-02T06:36:50.992Z,14.9
2024-03-02T06:37:53.763Z,15.2
2024-03-02T06:38:56.217Z,15.5
2024-03-02T06:39:58.790Z,15.7
2024-03-02T06:41:02.290Z,15.9
2024-03-02T06:42:04.801Z,16.1
2024-03-02T06:43:07.429Z,16.3
2024-03-02T06:44:10.061Z,16.4
2024-03-02T06:45:12.511Z,16.4
2024-03-02T06:46:15.005Z,16.5
2024-03-02T06:47:17.730Z,16.6
2024-03-02T06:48:20.371Z,16.6
2024-03-02T06:49:23.044Z,16.7
2024-03-02T06:50:25.515Z,16.6
2024-03-02T06:51:28.041Z,16.6
2024-03-02T06:52:30.593Z,16.6
2024-03-02T06:53:33.174Z,16.6
2024-03-02T06:54:35.787Z,16.6
2024-03-02T06:55:38.449Z,16.6
2024-03-02T06:56:40.944Z,16.6
2024-03-02T06:57:43.461Z,16.6
2024-03-02T06:58:46.290Z,16.6
2024-03-02T06:59:48.737Z,16.6
2024-03-02T07:00:51.267Z,16.6
2024-03-02T07:01:54.063Z,16.7
2024-03-02T07:02:56.564Z,16.7
2024-03-02T07:03:59.314Z,16.7
2024-03-02T07:05:02.175Z,16.7
2024-03-02T07:06:04.754Z,16.7
2024-03-02T07:07:07.468Z,16.7
2024-03-02T07:08:10.102Z,16.7
2024-03-02T07:09:12.769Z,16.7
2024-03-02T07:10:15.281Z,16.7
2024-03-02T07:11:17.762Z,16.7
2024-03-02T07:12:20.492Z,16.8
2024-03-02T07:13:23.142Z,16.8
2024-03-02T07:14:25.624Z,16.8
2024-03-02T07:15:28.118Z,16.8
2024-03-02T07:16:30.810Z,16.8
2024-03-02T07:17:33.280Z,16.8
2024-03-02T07:18:35.798Z,16.8
2024-03-02T07:19:38.517Z,16.8
2024-03-02T07:20:41.148Z,16.8
2024-03-02T07:21:43.671Z,16.8
2024-03-02T07:22:46.309Z,16.8
2024-03-02T07:23:48.738Z,16.8
2024-03-02T07:24:51.249Z,16.8
2024-03-02T07:26:59.303Z,4.8
2024-03-02T07:28:06.643Z,7
2024-03-02T07:29:09.134Z,8.9
2024-03-02T07:30:11.599Z,10.4
2024-03-02T07:31:14.045Z,11.7
2024-03-02T07:32:16.557Z,12.6
2024-03-02T07:33:19.120Z,13.4
2024-03-02T07:34:21.553Z,14
2024-03-02T07:35:24.110Z,14.5
2024-03-02T07:36:26.602Z,14.9
2024-03-02T07:37:29.199Z,15.2
2024-03-02T07:38:31.460Z,15.5
2024-03-02T07:39:34.145Z,15.7
2024-03-02T07:40:37.004Z,15.9
2024-03-02T07:41:39.451Z,16
2024-03-02T07:42:42.028Z,16.1
2024-03-02T07:43:44.772Z,16.2
2024-03-02T07:44:47.174Z,16.4
2024-03-02T07:45:49.652Z,16.4
2024-03-02T07:46:52.275Z,16.5
2024-03-02T07:47:54.846Z,16.5
2024-03-02T07:48:57.612Z,16.6
2024-03-02T07:50:00.259Z,16.6
2024-03-02T07:51:02.921Z,16.7
2024-03-02T07:52:05.473Z,16.7
2024-03-02T07:53:08.121Z,16.7
2024-03-02T07:54:10.613Z,16.7
2024-03-02T07:55:13.123Z,16.7
2024-03-02T07:56:15.586Z,16.7
2024-03-02T07:57:18.110Z,16.7
2024-03-02T07:58:21.044Z,16.7
2024-03-02T07:59:23.535Z,16.7
2024-03-02T08:00:26.119Z,16.7
2024-03-02T08:01:28.868Z,16.7
2024-03-02T08:02:31.685Z,16.7
2024-03-02T08:03:34.256Z,16.8
2024-03-02T08:04:36.989Z,16.8
2024-03-02T08:05:39.528Z,16.8
2024-03-02T08:06:42.155Z,16.8
2024-03-02T08:07:44.879Z,16.7
2024-03-02T08:08:47.362Z,16.7
2024-03-02T08:09:49.703Z,16.7
2024-03-02T08:10:52.407Z,16.8
2024-03-02T08:11:54.799Z,16.8
2024-03-02T08:12:57.427Z,16.8
2024-03-02T08:14:00.323Z,16.8
2024-03-02T08:15:03.011Z,16.8
2024-03-02T08:16:05.582Z,16.8
2024-03-02T08:17:08.634Z,16.8
2024-03-02T08:18:11.160Z,16.8
2024-03-02T08:19:13.975Z,16.8
2024-03-02T08:20:16.460Z,16.8
2024-03-02T08:21:19.200Z,16.8
2024-03-02T08:22:21.753Z,16.8
2024-03-02T08:23:24.242Z,16.8
2024-03-02T08:24:26.795Z,16.7
2024-03-02T08:25:29.359Z,16.7
2024-03-02T08:26:31.832Z,16.7
2024-03-02T08:27:35.007Z,16.7
2024-03-02T08:28:38.532Z,16.8
2024-03-02T08:29:41.023Z,16.8
2024-03-02T08:30:43.348Z,16.8
2024-03-02T08:31:46.006Z,16.8
2024-03-02T08:32:48.733Z,16.8
2024-03-02T08:33:51.513Z,16.8
2024-03-02T08:34:54.119Z,16.8
2024-03-02T08:35:56.588Z,16.8
2024-03-02T08:36:59.289Z,16.8
2024-03-02T08:38:02.125Z,16.8
2024-03-02T08:39:04.365Z,16.8
2024-03-02T08:40:06.948Z,16.8
2024-03-02T08:41:09.580Z,16.8
2024-03-02T08:42:12.038Z,16.8
2024-03-02T08:43:14.539Z,16.9
2024-03-02T08:44:17.017Z,16.9
2024-03-02T08:45:19.563Z,16.9
2024-03-02T08:46:22.190Z,17
2024-03-02T08:47:24.672Z,17
2024-03-02T08:48:27.370Z,17
2024-03-02T08:49:30.004Z,17
2024-03-02T08:50:32.471Z,17
2024-03-02T08:51:35.015Z,16.9
2024-03-02T08:52:37.475Z,16.9
2024-03-02T08:53:40.064Z,16.9
2024-03-02T08:54:42.617Z,16.9
2024-03-02T08:55:45.190Z,16.9
2024-03-02T08:56:47.651Z,16.9
2024-03-02T08:57:49.916Z,16.9
2024-03-02T08:58:52.594Z,16.9
2024-03-02T08:59:55.164Z,16.9
2024-03-02T09:00:57.812Z,16.9
2024-03-02T09:02:01.104Z,16.9
2024-03-02T09:03:03.425Z,16.8
2024-03-02T09:04:06.310Z,16.8
2024-03-02T09:05:08.995Z,16.8
2024-03-02T09:06:11.660Z,16.9
2024-03-02T09:07:14.113Z,16.9
2024-03-02T09:08:16.653Z,16.9
2024-03-02T09:09:19.383Z,16.9
2024-03-02T09:10:22.850Z,16.9
2024-03-02T09:11:29.931Z,4.8
2024-03-02T09:12:32.558Z,7.1
2024-03-02T09:13:35.182Z,9
2024-03-02T09:14:37.655Z,10.5
2024-03-02T09:15:40.210Z,11.7
2024-03-02T09:16:42.949Z,12.7
2024-03-02T09:17:45.278Z,13.5
2024-03-02T09:18:47.808Z,14.1
2024-03-02T09:19:50.460Z,14.7
2024-03-02T09:20:52.907Z,15.1
2024-03-02T09:21:55.509Z,15.4
2024-03-02T09:22:58.092Z,15.6
2024-03-02T09:24:00.608Z,15.8
2024-03-02T09:25:03.189Z,16
2024-03-02T09:26:06.047Z,16.2
2024-03-02T09:27:08.458Z,16.3
2024-03-02T09:28:10.959Z,16.4
2024-03-02T09:29:13.594Z,16.5
2024-03-02T09:30:16.114Z,16.6
2024-03-02T09:31:18.818Z,16.6
2024-03-02T09:32:21.409Z,16.6
2024-03-02T09:33:24.230Z,16.6
2024-03-02T09:34:27.028Z,16.7
2024-03-02T09:35:29.391Z,16.7
2024-03-02T09:36:31.903Z,16.7
2024-03-02T09:37:34.411Z,16.7
2024-03-02T09:38:36.900Z,16.7
2024-03-02T09:39:39.740Z,16.7
2024-03-02T09:40:42.440Z,16.7
2024-03-02T09:41:44.722Z,16.7
2024-03-02T09:42:47.238Z,16.7
2024-03-02T09:43:49.804Z,16.8
2024-03-02T09:44:52.318Z,16.8
2024-03-02T09:45:54.879Z,16.8
2024-03-02T09:46:57.471Z,16.9
2024-03-02T09:47:59.966Z,16.9
2024-03-02T09:49:02.772Z,16.9
2024-03-02T09:50:05.230Z,16.9
2024-03-02T09:51:07.738Z,16.9
2024-03-02T09:52:10.221Z,16.8
2024-03-02T09:53:12.795Z,16.8
2024-03-02T09:55:20.467Z,4.8
2024-03-02T09:56:22.947Z,7.2
2024-03-02T09:57:25.496Z,9
2024-03-02T09:58:28.130Z,10.6
2024-03-02T09:59:30.573Z,11.8
2024-03-02T10:00:33.027Z,12.8
2024-03-02T10:01:35.780Z,13.6
2024-03-02T10:02:38.255Z,14.2
2024-03-02T10:04:45.917Z,4.8
2024-03-02T10:05:48.399Z,7.1
2024-03-02T10:06:51.041Z,8.9
2024-03-02T10:07:53.766Z,10.4
2024-03-02T10:08:56.043Z,11.7
2024-03-02T10:09:58.773Z,12.7
2024-03-02T10:11:01.608Z,13.5
2024-03-02T10:12:04.414Z,14.2
2024-03-02T10:13:07.007Z,14.7
2024-03-02T10:14:09.519Z,15.1
2024-03-02T10:15:12.024Z,15.4
2024-03-02T10:16:14.455Z,15.7
2024-03-02T10:17:17.292Z,15.9
2024-03-02T10:18:19.905Z,16.1
2024-03-02T10:19:22.513Z,16.2
2024-03-02T10:20:25.009Z,16.4
2024-03-02T10:21:27.526Z,16.5
2024-03-02T10:22:29.954Z,16.6
2024-03-02T10:23:32.431Z,16.7
2024-03-02T10:24:34.969Z,16.7
2024-03-02T10:26:42.698Z,4.8
2024-03-02T10:27:45.202Z,7.1
2024-03-02T10:28:47.831Z,9
2024-03-02T10:29:50.256Z,10.5
2024-03-02T10:30:52.875Z,11.7
2024-03-02T10:31:56.258Z,12.7
2024-03-02T10:32:59.091Z,13.5
2024-03-02T10:34:02.055Z,14.2
2024-03-02T10:35:04.888Z,14.7
2024-03-02T10:36:07.372Z,15.1
2024-03-02T10:37:09.975Z,15.4
2024-03-02T10:38:12.826Z,15.7
2024-03-02T10:39:15.481Z,15.9
2024-03-02T10:40:18.014Z,16.1
2024-03-02T10:41:20.475Z,16.2
2024-03-02T10:42:22.958Z,16.4
2024-03-02T10:43:25.520Z,16.5
2024-03-02T10:44:27.999Z,16.6
2024-03-02T10:45:30.595Z,16.7
2024-03-02T10:46:32.962Z,16.8
2024-03-02T10:47:35.525Z,16.8
2024-03-02T10:48:38.193Z,16.8
2024-03-02T10:49:40.772Z,16.8
2024-03-02T10:50:43.261Z,16.8
2024-03-02T10:51:45.798Z,16.9
2024-03-02T10:52:48.229Z,16.9
2024-03-02T10:53:50.693Z,16.9
2024-03-02T10:54:53.400Z,16.9
2024-03-02T10:55:56.347Z,16.9
2024-03-02T10:57:06.053Z,4.9
2024-03-02T10:58:09.126Z,7.2
2024-03-02T10:59:11.786Z,9
2024-03-02T11:00:14.269Z,10.6
2024-03-02T11:01:17.033Z,11.8
2024-03-02T11:02:20.024Z,12.8
2024-03-02T11:03:22.437Z,13.6
2024-03-02T11:04:25.086Z,14.2
2024-03-02T11:05:27.553Z,14.7
2024-03-02T11:06:30.268Z,15.2
2024-03-02T11:07:32.881Z,15.5
2024-03-02T11:08:35.456Z,15.7
2024-03-02T11:09:38.036Z,15.9
2024-03-02T11:10:40.687Z,16.1
2024-03-02T11:11:43.176Z,16.2
2024-03-02T11:12:45.753Z,16.3
2024-03-02T11:13:48.386Z,16.4
2024-03-02T11:14:50.877Z,16.5
2024-03-02T11:15:53.402Z,16.5
2024-03-02T11:16:55.606Z,16.6
2024-03-02T11:17:58.116Z,16.7
2024-03-02T11:19:00.959Z,16.7
2024-03-02T11:20:04.033Z,16.8
2024-03-02T11:21:06.616Z,16.8
2024-03-02T11:22:09.470Z,16.9
2024-03-02T11:23:12.324Z,16.9
2024-03-02T11:24:14.784Z,16.9
2024-03-02T11:25:17.312Z,16.9
2024-03-02T11:26:20.061Z,17
2024-03-02T11:27:22.580Z,16.9
2024-03-02T11:28:25.202Z,16.9
2024-03-02T11:29:27.653Z,16.9
2024-03-02T11:30:30.158Z,16.9
2024-03-02T11:31:32.764Z,16.9
2024-03-02T11:32:35.255Z,16.9
2024-03-02T11:33:37.976Z,16.9
2024-03-02T11:34:40.653Z,16.9
2024-03-02T11:35:43.158Z,16.9
2024-03-02T11:36:46.327Z,16.9
2024-03-02T11:37:48.774Z,16.9
2024-03-02T11:38:51.252Z,16.9
2024-03-02T11:39:53.865Z,16.9
2024-03-02T11:40:56.482Z,16.9
2024-03-02T11:42:00.568Z,16.9
2024-03-02T11:43:03.348Z,16.9
2024-03-02T11:44:06.258Z,17
2024-03-02T11:45:09.016Z,16.9
2024-03-02T11:46:12.140Z,16.9
2024-03-02T11:47:15.488Z,16.9
2024-03-02T11:48:18.217Z,16.9
2024-03-02T11:49:20.637Z,16.8
2024-03-02T11:50:23.075Z,16.8
2024-03-02T11:51:25.573Z,16.9
2024-03-02T11:52:28.125Z,16.9
2024-03-02T11:54:35.804Z,4.8
2024-03-02T11:55:38.464Z,7.2
2024-03-02T11:56:40.920Z,9
2024-03-02T11:57:43.485Z,10.6
2024-03-02T11:58:46.041Z,11.8
2024-03-02T11:59:53.067Z,4.8
2024-03-02T12:00:55.720Z,7.2
2024-03-02T12:01:59.031Z,9.1
2024-03-02T12:03:01.761Z,10.6
2024-03-02T12:04:04.246Z,11.7
2024-03-02T12:05:07.171Z,12.7
2024-03-02T12:06:09.609Z,13.5
2024-03-02T12:07:12.089Z,14.2
2024-03-02T12:08:14.642Z,14.7
2024-03-02T12:09:17.108Z,15.1
2024-03-02T12:10:19.556Z,15.4
2024-03-02T12:11:21.884Z,15.7
2024-03-02T12:12:24.491Z,15.9
2024-03-02T12:13:26.902Z,16.1
2024-03-02T12:14:29.182Z,16.3
2024-03-02T12:15:31.780Z,16.4
2024-03-02T12:16:34.815Z,16.5
2024-03-02T12:17:37.488Z,16.6
2024-03-02T12:18:40.253Z,16.7
2024-03-02T12:19:42.898Z,16.7
2024-03-02T12:20:45.359Z,16.8
2024-03-02T12:21:47.912Z,16.8
2024-03-02T12:22:50.786Z,16.8
2024-03-02T12:23:53.280Z,16.9
2024-03-02T12:24:55.859Z,16.9
2024-03-02T12:25:58.393Z,16.9
2024-03-02T12:27:00.851Z,16.9
2024-03-02T12:28:04.448Z,16.9
2024-03-02T12:29:07.283Z,16.9
2024-03-02T12:30:09.711Z,16.9
2024-03-02T12:31:12.278Z,16.9
2024-03-02T12:32:14.926Z,16.9
2024-03-02T12:33:17.297Z,16.9
2024-03-02T12:34:20.267Z,16.9
2024-03-02T12:35:23.074Z,16.9
2024-03-02T12:36:25.513Z,16.9
2024-03-02T12:37:28.198Z,16.9
2024-03-02T12:38:30.674Z,16.9
2024-03-02T12:39:33.194Z,16.9
2024-03-02T12:40:36.246Z,16.9
2024-03-02T12:41:38.778Z,16.9
2024-03-02T12:42:41.298Z,16.9
2024-03-02T12:43:44.013Z,16.9
2024-03-02T12:44:46.461Z,16.9
2024-03-02T12:45:48.785Z,16.9
2024-03-02T12:46:51.759Z,16.9
2024-03-02T12:48:01.387Z,4.8
2024-03-02T12:49:04.356Z,7.1
2024-03-02T12:50:06.949Z,9
2024-03-02T12:51:09.511Z,10.5
2024-03-02T12:52:12.056Z,11.7
2024-03-02T12:53:14.598Z,12.7
2024-03-02T12:54:17.057Z,13.5
2024-03-02T12:55:19.474Z,14.1
2024-03-02T12:56:21.912Z,14.7
2024-03-02T12:57:24.414Z,15.1
2024-03-02T12:58:27.025Z,15.4
2024-03-02T12:59:29.708Z,15.7
2024-03-02T13:00:32.289Z,15.9
2024-03-02T13:01:35.121Z,16.1
2024-03-02T13:02:37.919Z,16.3
2024-03-02T13:03:40.749Z,16.4
2024-03-02T13:04:43.894Z,16.5
2024-03-02T13:05:46.313Z,16.6
2024-03-02T13:06:48.753Z,16.7
2024-03-02T13:07:51.438Z,16.7
2024-03-02T13:08:53.528Z,16.7
2024-03-02T13:09:56.137Z,16.8
2024-03-02T13:10:58.721Z,16.8
2024-03-02T13:12:01.413Z,16.9
2024-03-02T13:13:04.059Z,16.9
2024-03-02T13:14:06.996Z,16.9
2024-03-02T13:15:09.212Z,16.9
2024-03-02T13:16:17.473Z,4.8
2024-03-02T13:17:24.352Z,4.8
2024-03-02T13:18:26.934Z,7.2
2024-03-02T13:19:29.794Z,9
2024-03-02T13:20:32.056Z,10.6
2024-03-02T13:21:34.567Z,11.8
2024-03-02T13:22:36.804Z,12.8
2024-03-02T13:23:39.118Z,13.6
2024-03-02T13:24:41.653Z,14.2
2024-03-02T13:25:44.351Z,14.7
2024-03-02T13:26:46.880Z,15.1
2024-03-02T13:27:49.607Z,15.5
2024-03-02T13:28:52.240Z,15.8
2024-03-02T13:29:54.653Z,16
2024-03-02T13:30:56.936Z,16.2
2024-03-02T13:31:59.637Z,16.3
2024-03-02T13:33:02.228Z,16.4
2024-03-02T13:34:05.178Z,16.5
2024-03-02T13:35:08.056Z,16.6
2024-03-02T13:36:10.619Z,16.7
2024-03-02T13:37:13.159Z,16.8
2024-03-02T13:38:15.690Z,16.8
2024-03-02T13:39:18.114Z,16.8
2024-03-02T13:40:20.695Z,16.8
2024-03-02T13:41:23.459Z,16.8
2024-03-02T13:42:26.126Z,16.8
2024-03-02T13:43:28.905Z,16.8
2024-03-02T13:44:31.305Z,16.8
2024-03-02T13:45:33.984Z,16.8
2024-03-02T13:46:36.651Z,16.9
2024-03-02T13:47:39.076Z,16.9
2024-03-02T13:48:41.871Z,16.9
2024-03-02T13:49:44.410Z,16.9
2024-03-02T13:50:46.922Z,16.9
2024-03-02T13:51:49.285Z,16.9
2024-03-02T13:52:52.003Z,16.9
2024-03-02T13:53:54.463Z,16.9
2024-03-02T13:54:56.898Z,16.9
2024-03-02T13:55:59.446Z,16.9
2024-03-02T13:57:01.918Z,16.9
2024-03-02T13:58:04.647Z,16.8
2024-03-02T13:59:07.329Z,16.8
2024-03-02T14:00:09.701Z,16.8
2024-03-02T14:01:12.374Z,16.8
2024-03-02T14:02:15.231Z,16.8
2024-03-02T14:03:17.709Z,16.8
2024-03-02T14:04:20.280Z,16.8
2024-03-02T14:05:22.812Z,16.9
2024-03-02T14:06:25.482Z,16.9
2024-03-02T14:07:28.056Z,16.9
2024-03-02T14:08:30.472Z,17